sensor_id;sensor_type;location;lat;lon;timestamp;pressure;altitude;pressure_sealevel;temperature;humidity
43364;BME280;40636;52.424;-1.948;2023-04-02T00:09:19;100351.31;;;6.96;100.00
43364;BME280;40636;52.424;-1.948;2023-04-02T00:11:51;100354.03;;;6.96;100.00
43364;BME280;40636;52.424;-1.948;2023-04-02T00:14:29;100351.91;;;7.04;100.00
43364;BME280;40636;52.424;-1.948;2023-04-02T00:16:59;100355.94;;;6.95;100.00
43364;BME280;40636;52.424;-1.948;2023-04-02T00:19:44;100366.63;;;6.90;100.00
43364;BME280;40636;52.424;-1.948;2023-04-02T00:22:18;100366.03;;;6.88;100.00
43364;BME280;40636;52.424;-1.948;2023-04-02T00:24:45;100367.88;;;6.94;100.00
43364;BME280;40636;52.424;-1.948;2023-04-02T00:27:15;100375.03;;;6.95;100.00
43364;BME280;40636;52.424;-1.948;2023-04-02T00:29:53;100370.22;;;6.91;100.00
43364;BME280;40636;52.424;-1.948;2023-04-02T00:32:25;100378.38;;;6.97;100.00
43364;BME280;40636;52.424;-1.948;2023-04-02T00:34:53;100377.53;;;6.97;100.00
43364;BME280;40636;52.424;-1.948;2023-04-02T00:37:23;100378.78;;;6.94;100.00
43364;BME280;40636;52.424;-1.948;2023-04-02T00:42:47;100393.13;;;6.83;100.00
43364;BME280;40636;52.424;-1.948;2023-04-02T00:45:23;100394.81;;;6.77;100.00
43364;BME280;40636;52.424;-1.948;2023-04-02T00:47:51;100403.19;;;6.76;100.00
43364;BME280;40636;52.424;-1.948;2023-04-02T00:50:34;100403.19;;;6.76;100.00
43364;BME280;40636;52.424;-1.948;2023-04-02T00:53:21;100407.22;;;6.73;100.00
43364;BME280;40636;52.424;-1.948;2023-04-02T00:55:49;100420.44;;;6.70;100.00
43364;BME280;40636;52.424;-1.948;2023-04-02T01:00:53;100420.88;;;6.60;100.00
43364;BME280;40636;52.424;-1.948;2023-04-02T01:06:00;100410.81;;;6.60;100.00
43364;BME280;40636;52.424;-1.948;2023-04-02T01:11:13;100423.78;;;6.72;100.00
43364;BME280;40636;52.424;-1.948;2023-04-02T01:14:02;100424.41;;;6.74;100.00
43364;BME280;40636;52.424;-1.948;2023-04-02T01:16:51;100420.03;;;6.73;100.00
43364;BME280;40636;52.424;-1.948;2023-04-02T01:19:47;100422.94;;;6.71;100.00
43364;BME280;40636;52.424;-1.948;2023-04-02T01:24:45;100421.91;;;6.72;100.00
43364;BME280;40636;52.424;-1.948;2023-04-02T01:27:26;100428.38;;;6.78;100.00
43364;BME280;40636;52.424;-1.948;2023-04-02T01:29:56;100437.00;;;6.81;100.00
43364;BME280;40636;52.424;-1.948;2023-04-02T01:32:26;100435.47;;;6.85;100.00
43364;BME280;40636;52.424;-1.948;2023-04-02T01:34:55;100446.41;;;6.85;100.00
43364;BME280;40636;52.424;-1.948;2023-04-02T01:45:39;100459.88;;;6.74;100.00
43364;BME280;40636;52.424;-1.948;2023-04-02T01:48:17;100453.16;;;6.70;100.00
43364;BME280;40636;52.424;-1.948;2023-04-02T01:50:47;100454.41;;;6.67;100.00
43364;BME280;40636;52.424;-1.948;2023-04-02T01:53:16;100454.84;;;6.71;100.00
43364;BME280;40636;52.424;-1.948;2023-04-02T01:58:38;100459.88;;;6.67;100.00
43364;BME280;40636;52.424;-1.948;2023-04-02T02:01:07;100453.16;;;6.63;100.00
43364;BME280;40636;52.424;-1.948;2023-04-02T02:03:40;100467.00;;;6.61;100.00
43364;BME280;40636;52.424;-1.948;2023-04-02T02:06:12;100465.31;;;6.67;100.00
43364;BME280;40636;52.424;-1.948;2023-04-02T02:11:18;100469.94;;;6.73;100.00
43364;BME280;40636;52.424;-1.948;2023-04-02T02:13:54;100473.91;;;6.71;100.00
43364;BME280;40636;52.424;-1.948;2023-04-02T02:16:25;100486.72;;;6.77;100.00
43364;BME280;40636;52.424;-1.948;2023-04-02T02:18:55;100489.22;;;6.78;100.00
43364;BME280;40636;52.424;-1.948;2023-04-02T02:21:39;100487.53;;;6.84;100.00
43364;BME280;40636;52.424;-1.948;2023-04-02T02:24:28;100495.31;;;6.87;100.00
43364;BME280;40636;52.424;-1.948;2023-04-02T02:29:34;100492.81;;;6.79;100.00
43364;BME280;40636;52.424;-1.948;2023-04-02T02:32:03;100507.06;;;6.74;100.00
43364;BME280;40636;52.424;-1.948;2023-04-02T02:34:42;100506.84;;;6.76;100.00
43364;BME280;40636;52.424;-1.948;2023-04-02T02:37:13;100511.25;;;6.83;100.00
43364;BME280;40636;52.424;-1.948;2023-04-02T02:39:44;100515.88;;;6.83;100.00
43364;BME280;40636;52.424;-1.948;2023-04-02T02:42:26;100514.81;;;6.84;100.00
43364;BME280;40636;52.424;-1.948;2023-04-02T02:44:55;100510.22;;;6.78;100.00
43364;BME280;40636;52.424;-1.948;2023-04-02T02:49:57;100514.00;;;6.77;100.00
43364;BME280;40636;52.424;-1.948;2023-04-02T02:52:27;100520.94;;;6.73;100.00
43364;BME280;40636;52.424;-1.948;2023-04-02T02:55:02;100526.38;;;6.73;100.00
43364;BME280;40636;52.424;-1.948;2023-04-02T02:57:39;100522.41;;;6.69;100.00
43364;BME280;40636;52.424;-1.948;2023-04-02T03:00:08;100522.59;;;6.74;100.00
43364;BME280;40636;52.424;-1.948;2023-04-02T03:02:38;100530.78;;;6.74;100.00
43364;BME280;40636;52.424;-1.948;2023-04-02T03:05:07;100534.56;;;6.73;100.00
43364;BME280;40636;52.424;-1.948;2023-04-02T03:07:35;100533.28;;;6.75;100.00
43364;BME280;40636;52.424;-1.948;2023-04-02T03:10:11;100536.03;;;6.69;100.00
43364;BME280;40636;52.424;-1.948;2023-04-02T03:12:48;100539.59;;;6.76;100.00
43364;BME280;40636;52.424;-1.948;2023-04-02T03:15:46;100548.81;;;6.75;100.00
43364;BME280;40636;52.424;-1.948;2023-04-02T03:21:09;100551.13;;;6.78;100.00
43364;BME280;40636;52.424;-1.948;2023-04-02T03:23:44;100551.97;;;6.78;100.00
43364;BME280;40636;52.424;-1.948;2023-04-02T03:26:39;100562.47;;;6.75;100.00
43364;BME280;40636;52.424;-1.948;2023-04-02T03:29:18;100567.50;;;6.71;100.00
43364;BME280;40636;52.424;-1.948;2023-04-02T03:31:49;100565.84;;;6.64;100.00
43364;BME280;40636;52.424;-1.948;2023-04-02T03:34:23;100573.56;;;6.67;100.00
43364;BME280;40636;52.424;-1.948;2023-04-02T03:37:03;100577.56;;;6.71;100.00
43364;BME280;40636;52.424;-1.948;2023-04-02T03:39:42;100584.50;;;6.73;100.00
43364;BME280;40636;52.424;-1.948;2023-04-02T03:42:27;100584.91;;;6.70;100.00
43364;BME280;40636;52.424;-1.948;2023-04-02T03:47:34;100592.66;;;6.67;100.00
43364;BME280;40636;52.424;-1.948;2023-04-02T03:50:06;100591.63;;;6.54;100.00
43364;BME280;40636;52.424;-1.948;2023-04-02T03:52:35;100594.53;;;6.53;100.00
43364;BME280;40636;52.424;-1.948;2023-04-02T03:55:14;100605.44;;;6.53;100.00
43364;BME280;40636;52.424;-1.948;2023-04-02T03:58:03;100607.13;;;6.47;100.00
43364;BME280;40636;52.424;-1.948;2023-04-02T04:00:39;100611.34;;;6.56;100.00
43364;BME280;40636;52.424;-1.948;2023-04-02T04:03:14;100610.69;;;6.48;100.00
43364;BME280;40636;52.424;-1.948;2023-04-02T04:05:48;100618.44;;;6.44;100.00
43364;BME280;40636;52.424;-1.948;2023-04-02T04:08:40;100617.00;;;6.55;100.00
43364;BME280;40636;52.424;-1.948;2023-04-02T04:11:13;100614.69;;;6.58;100.00
43364;BME280;40636;52.424;-1.948;2023-04-02T04:13:53;100618.47;;;6.57;100.00
43364;BME280;40636;52.424;-1.948;2023-04-02T04:16:31;100616.38;;;6.59;100.00
43364;BME280;40636;52.424;-1.948;2023-04-02T04:21:29;100619.31;;;6.51;100.00
43364;BME280;40636;52.424;-1.948;2023-04-02T04:24:12;100622.66;;;6.53;100.00
43364;BME280;40636;52.424;-1.948;2023-04-02T04:27:15;100630.41;;;6.43;100.00
43364;BME280;40636;52.424;-1.948;2023-04-02T04:29:52;100631.03;;;6.52;100.00
43364;BME280;40636;52.424;-1.948;2023-04-02T04:32:46;100639.63;;;6.49;100.00
43364;BME280;40636;52.424;-1.948;2023-04-02T04:35:42;100629.56;;;6.43;100.00
43364;BME280;40636;52.424;-1.948;2023-04-02T04:38:17;100636.88;;;6.35;100.00
43364;BME280;40636;52.424;-1.948;2023-04-02T04:41:00;100641.69;;;6.40;100.00
43364;BME280;40636;52.424;-1.948;2023-04-02T04:46:04;100642.31;;;6.35;100.00
43364;BME280;40636;52.424;-1.948;2023-04-02T04:48:52;100651.59;;;6.41;100.00
43364;BME280;40636;52.424;-1.948;2023-04-02T04:51:25;100649.88;;;6.27;100.00
43364;BME280;40636;52.424;-1.948;2023-04-02T04:53:54;100655.69;;;6.17;100.00
43364;BME280;40636;52.424;-1.948;2023-04-02T04:56:24;100658.41;;;6.10;100.00
43364;BME280;40636;52.424;-1.948;2023-04-02T05:01:26;100672.44;;;6.07;100.00
43364;BME280;40636;52.424;-1.948;2023-04-02T05:04:03;100672.47;;;6.14;100.00
43364;BME280;40636;52.424;-1.948;2023-04-02T05:06:42;100678.31;;;6.11;100.00
43364;BME280;40636;52.424;-1.948;2023-04-02T05:09:18;100678.53;;;6.09;100.00
43364;BME280;40636;52.424;-1.948;2023-04-02T05:11:59;100689.44;;;6.16;100.00
43364;BME280;40636;52.424;-1.948;2023-04-02T05:14:36;100692.16;;;6.09;100.00
43364;BME280;40636;52.424;-1.948;2023-04-02T05:17:16;100694.88;;;6.16;100.00
43364;BME280;40636;52.424;-1.948;2023-04-02T05:19:50;100705.16;;;6.14;100.00
43364;BME280;40636;52.424;-1.948;2023-04-02T05:22:37;100707.69;;;6.16;100.00
43364;BME280;40636;52.424;-1.948;2023-04-02T05:25:34;100704.78;;;6.24;100.00
43364;BME280;40636;52.424;-1.948;2023-04-02T05:30:42;100710.63;;;6.21;100.00
43364;BME280;40636;52.424;-1.948;2023-04-02T05:33:27;100717.75;;;6.22;100.00
43364;BME280;40636;52.424;-1.948;2023-04-02T05:36:07;100722.59;;;6.20;100.00
43364;BME280;40636;52.424;-1.948;2023-04-02T05:38:37;100727.81;;;6.15;100.00
43364;BME280;40636;52.424;-1.948;2023-04-02T05:41:26;100732.81;;;6.11;100.00
43364;BME280;40636;52.424;-1.948;2023-04-02T05:44:01;100731.38;;;6.15;100.00
43364;BME280;40636;52.424;-1.948;2023-04-02T05:46:36;100736.22;;;6.20;100.00
43364;BME280;40636;52.424;-1.948;2023-04-02T05:49:15;100743.38;;;6.27;100.00
43364;BME280;40636;52.424;-1.948;2023-04-02T05:51:47;100748.00;;;6.27;100.00
43364;BME280;40636;52.424;-1.948;2023-04-02T05:54:19;100750.47;;;6.22;100.00
43364;BME280;40636;52.424;-1.948;2023-04-02T05:56:52;100750.66;;;6.14;100.00
43364;BME280;40636;52.424;-1.948;2023-04-02T05:59:32;100749.16;;;6.11;100.00
43364;BME280;40636;52.424;-1.948;2023-04-02T06:02:27;100746.66;;;6.16;100.00
43364;BME280;40636;52.424;-1.948;2023-04-02T06:05:03;100771.16;;;6.09;100.00
43364;BME280;40636;52.424;-1.948;2023-04-02T06:07:39;100766.69;;;5.95;100.00
43364;BME280;40636;52.424;-1.948;2023-04-02T06:11:00;100775.44;;;5.91;100.00
43364;BME280;40636;52.424;-1.948;2023-04-02T06:13:09;100779.00;;;5.91;100.00
43364;BME280;40636;52.424;-1.948;2023-04-02T06:15:38;100777.28;;;5.90;100.00
43364;BME280;40636;52.424;-1.948;2023-04-02T06:18:18;100782.31;;;5.87;100.00
43364;BME280;40636;52.424;-1.948;2023-04-02T06:20:46;100786.88;;;5.79;100.00
43364;BME280;40636;52.424;-1.948;2023-04-02T06:23:17;100784.53;;;5.76;100.00
43364;BME280;40636;52.424;-1.948;2023-04-02T06:25:56;100792.06;;;5.74;100.00
43364;BME280;40636;52.424;-1.948;2023-04-02T06:28:45;100799.59;;;5.72;100.00
43364;BME280;40636;52.424;-1.948;2023-04-02T06:31:22;100808.19;;;5.76;100.00
43364;BME280;40636;52.424;-1.948;2023-04-02T06:33:51;100811.38;;;5.79;100.00
43364;BME280;40636;52.424;-1.948;2023-04-02T06:36:22;100810.91;;;5.76;100.00
43364;BME280;40636;52.424;-1.948;2023-04-02T06:38:51;100822.22;;;5.73;100.00
43364;BME280;40636;52.424;-1.948;2023-04-02T06:41:22;100820.94;;;5.69;100.00
43364;BME280;40636;52.424;-1.948;2023-04-02T06:43:52;100830.13;;;5.68;100.00
43364;BME280;40636;52.424;-1.948;2023-04-02T06:46:34;100826.31;;;5.62;100.00
43364;BME280;40636;52.424;-1.948;2023-04-02T06:49:22;100845.25;;;5.49;100.00
43364;BME280;40636;52.424;-1.948;2023-04-02T06:51:53;100857.19;;;5.48;100.00
43364;BME280;40636;52.424;-1.948;2023-04-02T06:54:20;100872.47;;;5.49;100.00
43364;BME280;40636;52.424;-1.948;2023-04-02T06:56:49;100867.03;;;5.49;100.00
43364;BME280;40636;52.424;-1.948;2023-04-02T06:59:17;100865.88;;;5.37;100.00
43364;BME280;40636;52.424;-1.948;2023-04-02T07:04:19;100878.13;;;5.47;100.00
43364;BME280;40636;52.424;-1.948;2023-04-02T07:06:47;100881.16;;;5.38;100.00
43364;BME280;40636;52.424;-1.948;2023-04-02T07:09:15;100885.00;;;5.43;100.00
43364;BME280;40636;52.424;-1.948;2023-04-02T07:11:42;100894.47;;;5.47;100.00
43364;BME280;40636;52.424;-1.948;2023-04-02T07:14:12;100901.19;;;5.51;100.00
43364;BME280;40636;52.424;-1.948;2023-04-02T07:16:40;100901.59;;;5.48;100.00
43364;BME280;40636;52.424;-1.948;2023-04-02T07:19:17;100902.03;;;5.52;100.00
43364;BME280;40636;52.424;-1.948;2023-04-02T07:21:46;100907.88;;;5.49;100.00
43364;BME280;40636;52.424;-1.948;2023-04-02T07:24:13;100910.78;;;5.47;100.00
43364;BME280;40636;52.424;-1.948;2023-04-02T07:26:39;100907.94;;;5.55;100.00
43364;BME280;40636;52.424;-1.948;2023-04-02T07:29:08;100907.53;;;5.58;100.00
43364;BME280;40636;52.424;-1.948;2023-04-02T07:31:37;100899.91;;;5.47;100.00
43364;BME280;40636;52.424;-1.948;2023-04-02T07:34:05;100911.84;;;5.46;100.00
43364;BME280;40636;52.424;-1.948;2023-04-02T07:36:32;100907.88;;;5.49;100.00
43364;BME280;40636;52.424;-1.948;2023-04-02T07:38:59;100914.69;;;5.59;100.00
43364;BME280;40636;52.424;-1.948;2023-04-02T07:41:26;100928.47;;;5.58;100.00
43364;BME280;40636;52.424;-1.948;2023-04-02T07:43:53;100939.38;;;5.58;100.00
43364;BME280;40636;52.424;-1.948;2023-04-02T07:46:20;100931.34;;;5.50;100.00
43364;BME280;40636;52.424;-1.948;2023-04-02T07:48:47;100937.38;;;5.45;100.00
43364;BME280;40636;52.424;-1.948;2023-04-02T07:51:20;100943.41;;;5.41;100.00
43364;BME280;40636;52.424;-1.948;2023-04-02T07:53:47;100946.22;;;5.54;100.00
43364;BME280;40636;52.424;-1.948;2023-04-02T07:56:17;100950.66;;;5.55;100.00
43364;BME280;40636;52.424;-1.948;2023-04-02T07:58:44;100940.69;;;5.62;100.00
43364;BME280;40636;52.424;-1.948;2023-04-02T08:01:20;100942.94;;;5.58;100.00
43364;BME280;40636;52.424;-1.948;2023-04-02T08:03:49;100950.97;;;5.67;100.00
43364;BME280;40636;52.424;-1.948;2023-04-02T08:06:20;100945.03;;;5.78;100.00
43364;BME280;40636;52.424;-1.948;2023-04-02T08:08:47;100951.06;;;5.95;100.00
43364;BME280;40636;52.424;-1.948;2023-04-02T08:11:14;100954.91;;;6.00;100.00
43364;BME280;40636;52.424;-1.948;2023-04-02T08:13:42;100958.66;;;5.99;100.00
43364;BME280;40636;52.424;-1.948;2023-04-02T08:16:09;100962.16;;;6.15;100.00
43364;BME280;40636;52.424;-1.948;2023-04-02T08:18:37;100967.47;;;6.23;100.00
43364;BME280;40636;52.424;-1.948;2023-04-02T08:21:08;100973.81;;;6.30;100.00
43364;BME280;40636;52.424;-1.948;2023-04-02T08:23:36;100974.53;;;6.17;100.00
43364;BME280;40636;52.424;-1.948;2023-04-02T08:26:04;100975.66;;;6.23;100.00
43364;BME280;40636;52.424;-1.948;2023-04-02T08:28:31;100979.94;;;6.10;100.00
43364;BME280;40636;52.424;-1.948;2023-04-02T08:30:58;100980.31;;;6.07;100.00
43364;BME280;40636;52.424;-1.948;2023-04-02T08:33:26;100981.16;;;6.08;100.00
43364;BME280;40636;52.424;-1.948;2023-04-02T08:35:52;100979.41;;;5.79;100.00
43364;BME280;40636;52.424;-1.948;2023-04-02T08:38:20;100984.97;;;5.71;100.00
43364;BME280;40636;52.424;-1.948;2023-04-02T08:40:50;100994.06;;;5.78;100.00
43364;BME280;40636;52.424;-1.948;2023-04-02T08:48:50;101013.72;;;5.73;100.00
43364;BME280;40636;52.424;-1.948;2023-04-02T08:51:25;101015.84;;;5.78;100.00
43364;BME280;40636;52.424;-1.948;2023-04-02T08:53:57;101010.47;;;5.84;100.00
43364;BME280;40636;52.424;-1.948;2023-04-02T08:56:29;101021.19;;;5.86;100.00
43364;BME280;40636;52.424;-1.948;2023-04-02T08:59:02;101024.75;;;5.87;100.00
43364;BME280;40636;52.424;-1.948;2023-04-02T09:04:23;101017.75;;;5.99;100.00
43364;BME280;40636;52.424;-1.948;2023-04-02T09:06:53;101024.00;;;6.14;100.00
43364;BME280;40636;52.424;-1.948;2023-04-02T09:09:21;101030.94;;;6.17;100.00
43364;BME280;40636;52.424;-1.948;2023-04-02T09:11:59;101030.56;;;6.20;100.00
43364;BME280;40636;52.424;-1.948;2023-04-02T09:14:42;101044.81;;;6.22;100.00
43364;BME280;40636;52.424;-1.948;2023-04-02T09:17:18;101054.44;;;6.18;100.00
43364;BME280;40636;52.424;-1.948;2023-04-02T09:20:21;101056.03;;;6.12;100.00
43364;BME280;40636;52.424;-1.948;2023-04-02T09:22:50;101059.81;;;6.11;100.00
43364;BME280;40636;52.424;-1.948;2023-04-02T09:25:23;101061.13;;;6.15;100.00
43364;BME280;40636;52.424;-1.948;2023-04-02T09:27:54;101058.50;;;6.07;100.00
43364;BME280;40636;52.424;-1.948;2023-04-02T09:32:59;101071.34;;;6.13;100.00
43364;BME280;40636;52.424;-1.948;2023-04-02T09:35:30;101080.78;;;6.10;100.00
43364;BME280;40636;52.424;-1.948;2023-04-02T09:38:20;101075.78;;;6.14;100.00
43364;BME280;40636;52.424;-1.948;2023-04-02T09:40:58;101075.13;;;6.33;100.00
43364;BME280;40636;52.424;-1.948;2023-04-02T09:43:31;101075.91;;;6.27;100.00
43364;BME280;40636;52.424;-1.948;2023-04-02T09:46:15;101075.59;;;6.37;100.00
43364;BME280;40636;52.424;-1.948;2023-04-02T09:48:47;101078.09;;;6.39;100.00
43364;BME280;40636;52.424;-1.948;2023-04-02T09:51:20;101080.91;;;6.45;100.00
43364;BME280;40636;52.424;-1.948;2023-04-02T09:56:30;101082.00;;;6.51;100.00
43364;BME280;40636;52.424;-1.948;2023-04-02T10:01:40;101087.88;;;6.76;100.00
43364;BME280;40636;52.424;-1.948;2023-04-02T10:04:34;101103.22;;;6.77;100.00
43364;BME280;40636;52.424;-1.948;2023-04-02T10:07:02;101103.47;;;6.82;100.00
43364;BME280;40636;52.424;-1.948;2023-04-02T10:09:34;101098.63;;;6.84;100.00
43364;BME280;40636;52.424;-1.948;2023-04-02T10:12:05;101111.66;;;6.82;100.00
43364;BME280;40636;52.424;-1.948;2023-04-02T10:14:39;101100.97;;;6.59;100.00
43364;BME280;40636;52.424;-1.948;2023-04-02T10:17:30;101105.84;;;6.64;100.00
43364;BME280;40636;52.424;-1.948;2023-04-02T10:20:05;101102.75;;;6.73;100.00
43364;BME280;40636;52.424;-1.948;2023-04-02T10:22:37;101116.06;;;6.61;100.00
43364;BME280;40636;52.424;-1.948;2023-04-02T10:25:16;101120.44;;;6.77;100.00
43364;BME280;40636;52.424;-1.948;2023-04-02T10:27:50;101119.16;;;6.80;100.00
43364;BME280;40636;52.424;-1.948;2023-04-02T10:33:04;101125.22;;;6.75;100.00
43364;BME280;40636;52.424;-1.948;2023-04-02T10:41:14;101147.41;;;6.94;100.00
43364;BME280;40636;52.424;-1.948;2023-04-02T10:49:30;101168.09;;;6.81;100.00
43364;BME280;40636;52.424;-1.948;2023-04-02T10:52:11;101167.78;;;6.70;100.00
43364;BME280;40636;52.424;-1.948;2023-04-02T10:54:57;101158.53;;;6.71;100.00
43364;BME280;40636;52.424;-1.948;2023-04-02T10:57:38;101164.59;;;6.66;100.00
43364;BME280;40636;52.424;-1.948;2023-04-02T11:00:16;101171.94;;;6.66;100.00
43364;BME280;40636;52.424;-1.948;2023-04-02T11:03:06;101179.03;;;6.81;100.00
43364;BME280;40636;52.424;-1.948;2023-04-02T11:05:51;101174.78;;;7.00;100.00
43364;BME280;40636;52.424;-1.948;2023-04-02T11:08:37;101177.34;;;7.08;100.00
43364;BME280;40636;52.424;-1.948;2023-04-02T11:11:14;101177.84;;;7.19;100.00
43364;BME280;40636;52.424;-1.948;2023-04-02T11:13:59;101179.94;;;7.17;100.00
43364;BME280;40636;52.424;-1.948;2023-04-02T11:16:26;101183.00;;;6.85;100.00
43364;BME280;40636;52.424;-1.948;2023-04-02T11:29:46;101191.19;;;7.35;100.00
43364;BME280;40636;52.424;-1.948;2023-04-02T11:37:39;101196.19;;;7.03;100.00
43364;BME280;40636;52.424;-1.948;2023-04-02T11:42:44;101202.28;;;7.27;100.00
43364;BME280;40636;52.424;-1.948;2023-04-02T11:50:39;101212.69;;;7.45;100.00
43364;BME280;40636;52.424;-1.948;2023-04-02T11:55:46;101230.69;;;7.60;100.00
43364;BME280;40636;52.424;-1.948;2023-04-02T12:11:49;101219.63;;;8.10;100.00
43364;BME280;40636;52.424;-1.948;2023-04-02T12:14:43;101224.25;;;8.16;100.00
43364;BME280;40636;52.424;-1.948;2023-04-02T12:17:23;101225.81;;;8.32;100.00
43364;BME280;40636;52.424;-1.948;2023-04-02T12:19:55;101225.59;;;8.33;100.00
43364;BME280;40636;52.424;-1.948;2023-04-02T12:22:24;101224.84;;;8.46;100.00
43364;BME280;40636;52.424;-1.948;2023-04-02T12:24:57;101229.19;;;7.93;100.00
43364;BME280;40636;52.424;-1.948;2023-04-02T12:27:26;101231.00;;;8.20;100.00
43364;BME280;40636;52.424;-1.948;2023-04-02T12:30:10;101228.94;;;8.22;100.00
43364;BME280;40636;52.424;-1.948;2023-04-02T12:32:37;101232.97;;;8.33;100.00
43364;BME280;40636;52.424;-1.948;2023-04-02T12:35:05;101234.81;;;8.26;100.00
43364;BME280;40636;52.424;-1.948;2023-04-02T12:37:31;101232.31;;;8.31;100.00
43364;BME280;40636;52.424;-1.948;2023-04-02T12:40:01;101238.44;;;7.92;100.00
43364;BME280;40636;52.424;-1.948;2023-04-02T12:42:36;101237.75;;;8.24;100.00
43364;BME280;40636;52.424;-1.948;2023-04-02T12:45:04;101234.50;;;8.42;100.00
43364;BME280;40636;52.424;-1.948;2023-04-02T12:47:32;101234.50;;;8.49;100.00
43364;BME280;40636;52.424;-1.948;2023-04-02T12:50:00;101232.44;;;8.57;100.00
43364;BME280;40636;52.424;-1.948;2023-04-02T12:52:28;101234.59;;;8.69;100.00
43364;BME280;40636;52.424;-1.948;2023-04-02T12:54:57;101235.84;;;8.66;100.00
43364;BME280;40636;52.424;-1.948;2023-04-02T12:59:53;101227.66;;;8.73;100.00
43364;BME280;40636;52.424;-1.948;2023-04-02T13:02:28;101239.22;;;8.68;100.00
43364;BME280;40636;52.424;-1.948;2023-04-02T13:04:57;101242.38;;;8.72;100.00
43364;BME280;40636;52.424;-1.948;2023-04-02T13:07:31;101227.84;;;8.71;100.00
43364;BME280;40636;52.424;-1.948;2023-04-02T13:10:00;101235.59;;;8.54;100.00
43364;BME280;40636;52.424;-1.948;2023-04-02T13:12:38;101229.56;;;8.72;100.00
43364;BME280;40636;52.424;-1.948;2023-04-02T13:15:20;101223.69;;;8.95;100.00
43364;BME280;40636;52.424;-1.948;2023-04-02T13:18:05;101221.38;;;9.05;100.00
43364;BME280;40636;52.424;-1.948;2023-04-02T13:20:36;101226.00;;;9.11;100.00
43364;BME280;40636;52.424;-1.948;2023-04-02T13:25:56;101222.38;;;8.71;100.00
43364;BME280;40636;52.424;-1.948;2023-04-02T13:28:24;101221.19;;;8.32;100.00
43364;BME280;40636;52.424;-1.948;2023-04-02T13:30:51;101221.06;;;8.47;100.00
43364;BME280;40636;52.424;-1.948;2023-04-02T13:33:17;101218.13;;;8.55;100.00
43364;BME280;40636;52.424;-1.948;2023-04-02T13:35:45;101206.16;;;8.63;100.00
43364;BME280;40636;52.424;-1.948;2023-04-02T13:38:12;101208.69;;;8.64;100.00
43364;BME280;40636;52.424;-1.948;2023-04-02T13:40:39;101197.78;;;8.84;100.00
43364;BME280;40636;52.424;-1.948;2023-04-02T13:43:06;101199.69;;;9.04;100.00
43364;BME280;40636;52.424;-1.948;2023-04-02T13:45:37;101192.31;;;9.24;100.00
43364;BME280;40636;52.424;-1.948;2023-04-02T13:48:05;101192.53;;;9.23;100.00
43364;BME280;40636;52.424;-1.948;2023-04-02T13:50:33;101200.09;;;9.34;100.00
43364;BME280;40636;52.424;-1.948;2023-04-02T13:53:06;101185.38;;;9.28;100.00
43364;BME280;40636;52.424;-1.948;2023-04-02T13:55:38;101187.91;;;9.10;100.00
43364;BME280;40636;52.424;-1.948;2023-04-02T13:58:06;101187.47;;;9.26;100.00
43364;BME280;40636;52.424;-1.948;2023-04-02T14:00:34;101213.16;;;9.12;100.00
43364;BME280;40636;52.424;-1.948;2023-04-02T14:03:07;101203.69;;;8.81;100.00
43364;BME280;40636;52.424;-1.948;2023-04-02T14:05:43;101212.13;;;9.00;100.00
43364;BME280;40636;52.424;-1.948;2023-04-02T14:08:22;101214.00;;;8.99;100.00
43364;BME280;40636;52.424;-1.948;2023-04-02T14:11:09;101211.88;;;8.75;100.00
43364;BME280;40636;52.424;-1.948;2023-04-02T14:19:12;101204.31;;;9.03;100.00
43364;BME280;40636;52.424;-1.948;2023-04-02T14:24:41;101204.72;;;8.87;100.00
43364;BME280;40636;52.424;-1.948;2023-04-02T14:27:28;101198.19;;;8.88;100.00
43364;BME280;40636;52.424;-1.948;2023-04-02T14:32:42;101195.03;;;8.98;100.00
43364;BME280;40636;52.424;-1.948;2023-04-02T14:35:34;101186.63;;;8.86;100.00
43364;BME280;40636;52.424;-1.948;2023-04-02T14:38:19;101183.25;;;8.97;100.00
43364;BME280;40636;52.424;-1.948;2023-04-02T14:40:51;101198.00;;;8.96;100.00
43364;BME280;40636;52.424;-1.948;2023-04-02T14:43:24;101188.72;;;8.97;100.00
43364;BME280;40636;52.424;-1.948;2023-04-02T14:46:00;101186.22;;;8.96;100.00
43364;BME280;40636;52.424;-1.948;2023-04-02T14:48:56;101186.84;;;8.98;100.00
43364;BME280;40636;52.424;-1.948;2023-04-02T14:51:36;101175.25;;;8.89;100.00
43364;BME280;40636;52.424;-1.948;2023-04-02T14:54:12;101176.31;;;9.01;100.00
43364;BME280;40636;52.424;-1.948;2023-04-02T14:56:50;101178.22;;;9.14;100.00
43364;BME280;40636;52.424;-1.948;2023-04-02T14:59:38;101165.13;;;9.03;100.00
43364;BME280;40636;52.424;-1.948;2023-04-02T15:02:17;101165.56;;;9.20;100.00
43364;BME280;40636;52.424;-1.948;2023-04-02T15:04:54;101172.09;;;9.32;100.00
43364;BME280;40636;52.424;-1.948;2023-04-02T15:07:31;101175.69;;;9.06;100.00
43364;BME280;40636;52.424;-1.948;2023-04-02T15:10:27;101169.38;;;9.05;100.00
43364;BME280;40636;52.424;-1.948;2023-04-02T15:12:55;101171.25;;;9.11;100.00
43364;BME280;40636;52.424;-1.948;2023-04-02T15:15:40;101175.03;;;9.10;100.00
43364;BME280;40636;52.424;-1.948;2023-04-02T15:18:11;101169.56;;;9.17;100.00
43364;BME280;40636;52.424;-1.948;2023-04-02T15:31:48;101190.44;;;9.31;100.00
43364;BME280;40636;52.424;-1.948;2023-04-02T15:37:07;101165.78;;;9.11;100.00
43364;BME280;40636;52.424;-1.948;2023-04-02T15:42:33;101168.91;;;9.35;100.00
43364;BME280;40636;52.424;-1.948;2023-04-02T15:53:18;101188.72;;;9.37;100.00
43364;BME280;40636;52.424;-1.948;2023-04-02T15:55:58;101185.97;;;9.30;100.00
43364;BME280;40636;52.424;-1.948;2023-04-02T16:07:23;101195.47;;;9.28;100.00
43364;BME280;40636;52.424;-1.948;2023-04-02T16:10:09;101201.78;;;9.35;100.00
43364;BME280;40636;52.424;-1.948;2023-04-02T16:12:40;101193.78;;;9.20;100.00
43364;BME280;40636;52.424;-1.948;2023-04-02T16:15:17;101204.31;;;9.30;100.00
43364;BME280;40636;52.424;-1.948;2023-04-02T16:18:17;101182.41;;;9.36;100.00